Time;durP1;ratioP1;P1;durP2;ratioP2;P2;SDS_P1;SDS_P2;PMS_P1;PMS_P2;Temp;Humidity;BMP_temperature;BMP_pressure;BME280_temperature;BME280_humidity;BME280_pressure;Samples;Min_cycle;Max_cycle;Signal;HPM_P1;HPM_P2
2021/08/27 00:00:58;;;;;;;4.32;2.60;;;;;;;12.94;100.00;94656.19;5051552;28;20025;-56
2021/08/27 00:03:23;;;;;;;4.97;2.80;;;;;;;12.92;100.00;94661.06;5052612;28;20439;-58
2021/08/27 00:05:49;;;;;;;5.82;2.70;;;;;;;12.91;100.00;94662.91;5052643;28;20158;-58
2021/08/27 00:08:19;;;;;;;3.20;2.28;;;;;;;12.89;100.00;94677.75;5051227;28;20029;-58
2021/08/27 00:10:45;;;;;;;4.40;2.30;;;;;;;12.86;100.00;94683.69;5052494;28;20025;-56
2021/08/27 00:13:13;;;;;;;5.07;2.90;;;;;;;12.80;100.00;94679.47;5052257;28;20040;-58
2021/08/27 00:15:38;;;;;;;8.77;2.83;;;;;;;12.74;100.00;94690.28;5051284;28;20490;-58
2021/08/27 00:18:04;;;;;;;4.32;2.47;;;;;;;12.71;100.00;94688.19;5052762;28;20032;-58
2021/08/27 00:20:32;;;;;;;4.38;2.50;;;;;;;12.66;100.00;94688.25;5052505;28;20491;-58
2021/08/27 00:23:01;;;;;;;5.57;2.88;;;;;;;12.62;100.00;94675.69;5052273;28;20490;-58
2021/08/27 00:25:26;;;;;;;4.90;3.28;;;;;;;12.60;100.00;94672.47;5052006;28;20115;-54
2021/08/27 00:27:52;;;;;;;3.85;2.30;;;;;;;12.62;100.00;94678.38;5051806;28;20487;-56
2021/08/27 00:30:24;;;;;;;3.97;2.63;;;;;;;12.57;100.00;94683.78;5051717;28;20040;-57
2021/08/27 00:32:49;;;;;;;6.88;2.65;;;;;;;12.51;100.00;94687.63;5051560;28;20491;-57
2021/08/27 00:35:15;;;;;;;4.68;2.55;;;;;;;12.44;100.00;94693.34;5050628;28;20040;-59
2021/08/27 00:37:40;;;;;;;5.13;2.60;;;;;;;12.42;100.00;94685.56;5051658;28;20033;-58
2021/08/27 00:40:07;;;;;;;3.90;2.22;;;;;;;12.39;100.00;94685.34;5051473;28;20028;-59
2021/08/27 00:42:33;;;;;;;4.50;2.67;;;;;;;12.37;100.00;94695.56;5050339;28;20055;-59
2021/08/27 00:45:01;;;;;;;4.28;2.55;;;;;;;12.35;100.00;94681.63;5050412;28;20021;-58
2021/08/27 00:47:29;;;;;;;7.30;3.10;;;;;;;12.33;100.00;94687.28;5051508;28;20380;-57
2021/08/27 00:49:55;;;;;;;3.80;2.83;;;;;;;12.31;100.00;94699.38;5051516;28;20028;-57
2021/08/27 00:52:23;;;;;;;4.20;2.60;;;;;;;12.28;100.00;94695.41;5051442;28;20033;-58
2021/08/27 00:54:51;;;;;;;6.35;3.00;;;;;;;12.23;100.00;94695.44;5050841;28;20024;-57
2021/08/27 00:57:22;;;;;;;4.60;2.90;;;;;;;12.18;100.00;94700.88;5049933;28;20052;-58
2021/08/27 00:59:48;;;;;;;5.93;2.92;;;;;;;12.13;100.00;94711.63;5051375;28;20052;-59
2021/08/27 01:02:19;;;;;;;7.00;2.85;;;;;;;12.07;100.00;94718.16;5050174;28;20020;-59
2021/08/27 01:04:52;;;;;;;5.75;2.92;;;;;;;12.01;100.00;94714.69;5051418;28;20028;-58
2021/08/27 01:07:30;;;;;;;4.47;2.83;;;;;;;11.95;100.00;94712.38;5051090;28;20032;-56
2021/08/27 01:10:24;;;;;;;5.53;3.00;;;;;;;11.95;100.00;94707.78;5051052;28;20060;-57
2021/08/27 01:13:01;;;;;;;3.78;2.40;;;;;;;11.92;100.00;94702.97;5051477;28;20036;-59
2021/08/27 01:15:49;;;;;;;10.13;2.90;;;;;;;11.89;100.00;94712.41;5051055;28;20415;-57
2021/08/27 01:18:45;;;;;;;4.85;2.72;;;;;;;11.86;100.00;94702.22;5049917;28;20411;-58
2021/08/27 01:21:57;;;;;;;4.53;2.40;;;;;;;11.82;100.00;94698.50;5051113;28;20108;-58
2021/08/27 01:24:26;;;;;;;6.75;2.88;;;;;;;11.80;100.00;94695.28;5051119;28;20081;-56
2021/08/27 01:26:56;;;;;;;7.20;2.97;;;;;;;11.80;100.00;94695.28;5050979;28;20052;-55
2021/08/27 01:29:35;;;;;;;7.45;2.60;;;;;;;11.82;100.00;94706.53;5042899;28;20559;-58
2021/08/27 01:32:12;;;;;;;5.88;2.92;;;;;;;11.80;100.00;94705.22;5050965;28;20438;-59
2021/08/27 01:34:44;;;;;;;5.63;2.50;;;;;;;11.79;100.00;94706.28;5051076;28;20533;-59
2021/08/27 01:37:20;;;;;;;8.70;2.72;;;;;;;11.81;100.00;94712.19;5041340;28;20029;-58
2021/08/27 01:39:52;;;;;;;5.63;2.83;;;;;;;11.82;100.00;94724.53;5050894;28;20021;-59
2021/08/27 01:42:23;;;;;;;6.03;2.88;;;;;;;11.80;100.00;94718.66;5051234;28;20056;-56
2021/08/27 01:44:55;;;;;;;4.22;2.85;;;;;;;11.78;100.00;94721.59;5051047;28;20028;-55
2021/08/27 01:47:28;;;;;;;4.10;2.50;;;;;;;11.77;100.00;94727.22;5050893;28;20511;-56
2021/08/27 01:49:55;;;;;;;4.32;2.40;;;;;;;11.74;100.00;94725.91;5050789;28;20025;-58
2021/08/27 01:52:29;;;;;;;5.65;2.92;;;;;;;11.69;100.00;94731.31;5049695;28;20518;-54
2021/08/27 01:54:56;;;;;;;4.88;2.83;;;;;;;11.63;100.00;94728.97;5050955;28;20033;-53
2021/08/27 01:57:23;;;;;;;6.10;2.63;;;;;;;11.59;100.00;94716.09;5049455;28;20053;-56
2021/08/27 01:59:54;;;;;;;4.38;2.78;;;;;;;11.57;100.00;94710.22;5049903;28;20468;-57
2021/08/27 02:02:20;;;;;;;6.60;2.50;;;;;;;11.55;100.00;94706.22;5050687;28;20017;-55
2021/08/27 02:05:07;;;;;;;3.75;2.15;;;;;;;11.55;100.00;94704.31;5049518;28;20028;-54
2021/08/27 02:07:33;;;;;;;5.90;2.30;;;;;;;11.57;100.00;94696.78;5054831;28;20491;-58
2021/08/27 02:09:59;;;;;;;3.85;2.33;;;;;;;11.61;100.00;94705.06;5055203;28;20028;-54
2021/08/27 02:12:26;;;;;;;5.90;2.70;;;;;;;11.63;100.00;94696.78;5054416;28;20031;-58
2021/08/27 02:14:55;;;;;;;7.50;2.92;;;;;;;11.64;100.00;94703.75;5054657;28;20467;-56
2021/08/27 02:17:27;;;;;;;5.88;2.75;;;;;;;11.64;100.00;94693.81;5054398;28;20040;-56
2021/08/27 02:19:58;;;;;;;4.43;2.67;;;;;;;11.64;100.00;94696.50;5054738;28;20382;-56
2021/08/27 02:22:26;;;;;;;7.15;2.53;;;;;;;11.64;100.00;94695.69;5054151;28;20021;-57
2021/08/27 02:25:00;;;;;;;6.30;2.65;;;;;;;11.64;100.00;94701.06;5053097;28;20027;-55
2021/08/27 02:27:28;;;;;;;4.82;2.53;;;;;;;11.60;100.00;94704.28;5054452;28;20439;-59
2021/08/27 02:29:55;;;;;;;3.92;2.50;;;;;;;11.57;100.00;94701.34;5041636;28;20021;-58
2021/08/27 02:32:26;;;;;;;4.80;2.70;;;;;;;11.56;100.00;94705.94;5054248;28;20052;-57
2021/08/27 02:34:53;;;;;;;7.43;2.65;;;;;;;11.54;100.00;94705.41;5054278;28;20032;-58
2021/08/27 02:37:21;;;;;;;5.38;2.75;;;;;;;11.53;100.00;94698.44;5053925;28;20314;-59
2021/08/27 02:39:49;;;;;;;4.30;2.60;;;;;;;11.53;100.00;94692.28;5052597;28;20094;-59
2021/08/27 02:42:18;;;;;;;3.83;2.22;;;;;;;11.53;100.00;94692.28;5052723;28;20021;-58
2021/08/27 02:44:44;;;;;;;6.50;2.65;;;;;;;11.50;100.00;94698.19;5054173;28;20423;-58
2021/08/27 02:47:13;;;;;;;4.90;2.60;;;;;;;11.46;100.00;94700.63;5053819;28;20025;-58
2021/08/27 02:49:39;;;;;;;4.53;2.65;;;;;;;11.40;100.00;94703.66;5052427;28;20021;-57
2021/08/27 02:52:34;;;;;;;4.47;2.30;;;;;;;11.36;100.00;94705.25;5053693;28;20471;-58
2021/08/27 02:55:02;;;;;;;7.20;2.63;;;;;;;11.33;100.00;94717.34;5053956;28;20253;-53
2021/08/27 02:57:31;;;;;;;4.47;2.60;;;;;;;11.31;100.00;94716.84;5053422;28;20044;-54
2021/08/27 03:00:00;;;;;;;4.78;2.53;;;;;;;11.27;100.00;94731.84;5052439;28;20052;-59
2021/08/27 03:02:26;;;;;;;5.38;2.70;;;;;;;11.24;100.00;94738.59;5053643;28;20423;-57
2021/08/27 03:05:16;;;;;;;4.63;2.60;;;;;;;11.22;100.00;94748.78;5053705;28;20027;-57
2021/08/27 03:07:49;;;;;;;4.03;2.70;;;;;;;11.19;100.00;94760.06;5041362;28;20407;-57
2021/08/27 03:10:32;;;;;;;5.60;3.35;;;;;;;11.16;100.00;94767.84;5052225;28;20028;-57
2021/08/27 03:13:03;;;;;;;6.15;3.55;;;;;;;11.16;100.00;94778.56;5053604;28;20483;-55
2021/08/27 03:16:02;;;;;;;5.35;3.00;;;;;;;11.15;100.00;94785.00;5052257;28;20048;-57
2021/08/27 03:18:31;;;;;;;5.80;3.03;;;;;;;11.14;100.00;94794.13;5051527;28;20025;-57
2021/08/27 03:21:11;;;;;;;6.53;3.20;;;;;;;11.11;100.00;94795.50;5053437;28;20029;-55
2021/08/27 03:23:43;;;;;;;5.20;3.22;;;;;;;11.07;100.00;94801.66;5053228;28;20446;-57
2021/08/27 03:26:14;;;;;;;6.05;3.17;;;;;;;11.02;100.00;94803.28;5052094;28;20025;-55
2021/08/27 03:28:49;;;;;;;5.05;3.10;;;;;;;10.97;100.00;94806.00;5053543;28;20489;-58
2021/08/27 03:31:24;;;;;;;5.90;2.90;;;;;;;10.94;100.00;94811.09;5052943;28;20048;-58
2021/08/27 03:33:54;;;;;;;6.38;3.42;;;;;;;10.90;100.00;94816.19;5053112;28;20380;-58
2021/08/27 03:36:20;;;;;;;5.57;2.92;;;;;;;10.88;100.00;94818.34;5045410;28;20025;-57
2021/08/27 03:38:49;;;;;;;5.05;3.15;;;;;;;10.88;100.00;94822.91;5052768;28;20192;-55
2021/08/27 03:41:15;;;;;;;5.25;2.78;;;;;;;10.85;100.00;94824.25;5051496;28;20031;-53
2021/08/27 03:43:43;;;;;;;6.53;3.40;;;;;;;10.79;100.00;94833.38;5052371;28;20471;-57
2021/08/27 03:46:12;;;;;;;7.15;3.30;;;;;;;10.76;100.00;94843.84;5052900;28;20028;-55
2021/08/27 03:48:38;;;;;;;8.70;3.38;;;;;;;10.71;100.00;94844.63;5051514;28;20029;-53
2021/08/27 03:51:10;;;;;;;7.15;3.33;;;;;;;10.67;100.00;94856.97;5052718;28;20025;-56
2021/08/27 03:53:43;;;;;;;4.83;2.77;;;;;;;10.62;100.00;94859.66;5052827;28;20112;-58
2021/08/27 03:56:11;;;;;;;7.13;2.92;;;;;;;10.56;100.00;94855.41;5052556;28;20447;-52
2021/08/27 03:58:37;;;;;;;5.00;2.65;;;;;;;10.48;100.00;94854.06;5052598;28;20056;-57
2021/08/27 04:01:04;;;;;;;6.18;2.75;;;;;;;10.40;100.00;94846.56;5052364;28;20029;-57
2021/08/27 04:03:30;;;;;;;3.95;2.70;;;;;;;10.34;100.00;94853.00;5051149;28;20029;-58
2021/08/27 04:06:06;;;;;;;5.85;2.65;;;;;;;10.26;100.00;94859.69;5052514;28;20071;-57
2021/08/27 04:08:41;;;;;;;7.57;2.78;;;;;;;10.18;100.00;94862.88;5052804;28;20025;-59
2021/08/27 04:11:15;;;;;;;8.30;3.05;;;;;;;10.09;100.00;94861.78;5051200;28;20029;-57
2021/08/27 04:13:40;;;;;;;6.60;2.67;;;;;;;10.03;100.00;94857.50;5052809;28;20493;-57
2021/08/27 04:16:08;;;;;;;6.75;3.05;;;;;;;9.97;100.00;94862.03;5052292;28;20033;-57
2021/08/27 04:18:34;;;;;;;4.68;3.28;;;;;;;9.94;100.00;94867.13;5052133;28;20056;-58
2021/08/27 04:21:02;;;;;;;4.05;2.80;;;;;;;9.86;100.00;94869.25;5052206;28;20051;-56
2021/08/27 04:23:28;;;;;;;5.72;2.80;;;;;;;9.83;100.00;94871.66;5050765;28;20074;-58
2021/08/27 04:25:54;;;;;;;4.32;2.70;;;;;;;9.80;100.00;94877.56;5052214;28;20033;-58
2021/08/27 04:28:21;;;;;;;8.07;3.10;;;;;;;9.77;100.00;94875.41;5050009;28;20487;-58
2021/08/27 04:30:50;;;;;;;5.07;2.70;;;;;;;9.72;100.00;94878.06;5052092;28;20040;-58
2021/08/27 04:33:20;;;;;;;7.80;3.10;;;;;;;9.69;100.00;94873.25;5052001;28;20082;-58
2021/08/27 04:35:48;;;;;;;7.07;3.47;;;;;;;9.68;100.00;94880.47;5051946;28;20029;-58
2021/08/27 04:38:13;;;;;;;4.57;2.72;;;;;;;9.67;100.00;94881.53;5047050;28;20467;-58
2021/08/27 04:40:39;;;;;;;4.22;2.83;;;;;;;9.64;100.00;94882.03;5052091;28;20029;-58
2021/08/27 04:43:04;;;;;;;5.97;2.85;;;;;;;9.63;100.00;94885.78;5050543;28;20017;-58
2021/08/27 04:45:30;;;;;;;6.25;2.90;;;;;;;9.62;100.00;94889.53;5051719;28;20430;-58
2021/08/27 04:47:55;;;;;;;6.32;3.03;;;;;;;9.60;100.00;94883.66;5051612;28;20020;-57
2021/08/27 04:50:21;;;;;;;5.90;2.92;;;;;;;9.58;100.00;94897.28;5050267;28;20021;-58
2021/08/27 04:52:49;;;;;;;7.55;2.85;;;;;;;9.60;100.00;94889.00;5051469;28;20147;-58
2021/08/27 04:55:19;;;;;;;7.68;3.20;;;;;;;9.63;100.00;94893.81;5051677;28;20475;-58
2021/08/27 04:57:45;;;;;;;6.68;3.03;;;;;;;9.65;100.00;94889.00;5051734;28;20056;-54
2021/08/27 05:00:10;;;;;;;6.32;2.67;;;;;;;9.67;100.00;94892.22;5051627;28;20391;-54
2021/08/27 05:02:39;;;;;;;4.75;2.97;;;;;;;9.68;100.00;94891.16;5051663;28;20075;-52
2021/08/27 05:05:09;;;;;;;5.68;2.70;;;;;;;9.70;100.00;94889.03;5051477;28;20025;-55
2021/08/27 05:07:35;;;;;;;4.95;2.65;;;;;;;9.72;100.00;94892.22;5049779;28;20079;-52
2021/08/27 05:10:00;;;;;;;5.60;2.63;;;;;;;9.77;100.00;94886.91;5049967;28;20487;-53
2021/08/27 05:12:29;;;;;;;7.25;3.28;;;;;;;9.83;100.00;94888.50;5049758;28;20036;-56
2021/08/27 05:14:57;;;;;;;6.60;2.90;;;;;;;9.87;100.00;94891.44;5050286;28;20056;-56
2021/08/27 05:17:22;;;;;;;6.45;3.10;;;;;;;9.92;100.00;94896.03;5051621;28;20032;-56
2021/08/27 05:19:51;;;;;;;6.95;2.72;;;;;;;9.96;100.00;94895.22;5051225;28;20029;-53
2021/08/27 05:22:17;;;;;;;4.40;3.05;;;;;;;10.01;100.00;94897.13;5049772;28;20113;-56
2021/08/27 05:24:45;;;;;;;5.50;2.88;;;;;;;10.03;100.00;94900.31;5049903;28;20052;-58
2021/08/27 05:27:11;;;;;;;6.97;2.70;;;;;;;10.06;100.00;94899.78;5033166;28;20040;-58
2021/08/27 05:29:36;;;;;;;5.28;2.85;;;;;;;10.10;100.00;94904.34;5050874;28;20021;-55
2021/08/27 05:32:03;;;;;;;5.55;3.25;;;;;;;10.16;100.00;94897.94;5050844;28;20494;-58
2021/08/27 05:34:28;;;;;;;4.70;3.30;;;;;;;10.28;100.00;94904.94;5049715;28;20025;-58
2021/08/27 05:36:54;;;;;;;7.43;3.38;;;;;;;10.33;100.00;94908.41;5051051;28;20029;-55
2021/08/27 05:39:19;;;;;;;6.03;3.28;;;;;;;10.37;100.00;94906.81;5049377;28;20095;-56
2021/08/27 05:41:47;;;;;;;4.82;3.40;;;;;;;10.42;100.00;94901.47;5049697;28;20033;-55
2021/08/27 05:44:15;;;;;;;6.03;3.20;;;;;;;10.47;100.00;94899.84;5049528;28;20021;-57
2021/08/27 05:46:40;;;;;;;6.10;3.00;;;;;;;10.49;100.00;94906.53;5049747;28;20166;-56
2021/08/27 05:49:06;;;;;;;9.13;3.30;;;;;;;10.56;100.00;94898.25;5049601;28;20021;-57
2021/08/27 05:51:31;;;;;;;5.93;3.55;;;;;;;10.68;100.00;94901.44;5050494;28;20313;-57
2021/08/27 05:53:59;;;;;;;6.40;3.65;;;;;;;10.89;100.00;94903.03;5050789;28;20065;-53
2021/08/27 05:56:24;;;;;;;9.85;4.57;;;;;;;11.18;100.00;94900.56;5050220;28;20511;-51
2021/08/27 05:58:50;;;;;;;6.93;3.95;;;;;;;11.36;100.00;94891.09;5049121;28;20056;-56
2021/08/27 06:01:15;;;;;;;6.20;3.70;;;;;;;11.67;100.00;94891.75;5050221;28;20083;-55
2021/08/27 06:03:41;;;;;;;7.35;4.43;;;;;;;11.98;100.00;94880.91;5050456;28;20037;-57
2021/08/27 06:06:06;;;;;;;13.40;5.93;;;;;;;12.35;100.00;94877.66;5050520;28;20503;-57
2021/08/27 06:08:34;;;;;;;6.47;3.67;;;;;;;12.64;100.00;94864.28;5050402;28;20314;-57
2021/08/27 06:11:02;;;;;;;6.82;4.03;;;;;;;12.92;100.00;94850.03;5049191;28;20032;-57
2021/08/27 06:13:29;;;;;;;8.13;4.00;;;;;;;13.19;100.00;94838.72;5033899;28;20025;-54
2021/08/27 06:15:55;;;;;;;7.60;4.78;;;;;;;13.33;100.00;94815.41;5034868;28;20064;-56
2021/08/27 06:18:23;;;;;;;6.72;4.05;;;;;;;13.50;100.00;94789.94;5020179;28;20119;-54
2021/08/27 06:20:50;;;;;;;9.07;3.58;;;;;;;13.50;100.00;94750.34;5048991;28;20025;-52
2021/08/27 06:23:16;;;;;;;9.48;3.40;;;;;;;13.56;100.00;94716.09;5049205;28;20047;-56
2021/08/27 06:25:42;;;;;;;6.03;3.05;;;;;;;13.73;100.00;94680.59;5049245;28;20558;-55
2021/08/27 06:28:07;;;;;;;5.63;3.10;;;;;;;13.97;100.00;94642.75;5050249;28;20040;-55
2021/08/27 06:30:33;;;;;;;9.05;3.55;;;;;;;14.15;100.00;94614.97;5035973;28;20040;-56
2021/08/27 06:33:00;;;;;;;6.10;2.50;;;;;;;14.31;100.00;94588.53;5049098;28;20044;-54
2021/08/27 06:35:26;;;;;;;6.28;2.85;;;;;;;14.40;100.00;94576.75;5049127;28;20017;-53
2021/08/27 06:40:42;;;;;;;6.80;3.05;;;;;;;14.87;100.00;94592.75;5050252;28;20031;-55
2021/08/27 06:43:07;;;;;;;8.15;3.22;;;;;;;14.94;100.00;94615.53;5050368;28;20052;-51
2021/08/27 06:45:33;;;;;;;3.78;2.63;;;;;;;15.02;100.00;94633.69;5050410;28;20032;-55
2021/08/27 06:48:07;;;;;;;6.43;2.80;;;;;;;15.06;100.00;94650.84;5048965;28;20502;-57
2021/08/27 06:50:33;;;;;;;6.22;2.70;;;;;;;15.18;100.00;94674.59;5050285;28;20078;-55
2021/08/27 06:53:01;;;;;;;5.43;2.67;;;;;;;15.24;100.00;94699.59;5052850;28;20033;-55
2021/08/27 06:55:26;;;;;;;6.95;2.60;;;;;;;15.41;100.00;94742.91;5053895;28;20020;-56
2021/08/27 06:57:59;;;;;;;6.18;2.90;;;;;;;15.53;100.00;94747.81;5053283;28;20048;-52
2021/08/27 07:00:29;;;;;;;4.47;2.72;;;;;;;15.84;100.00;94777.63;5053849;28;20017;-57
2021/08/27 07:02:57;;;;;;;6.32;2.58;;;;;;;16.12;100.00;94816.94;5053526;28;20061;-52
2021/08/27 07:05:23;;;;;;;4.18;2.47;;;;;;;16.39;100.00;94844.97;5053629;28;20522;-55
2021/08/27 07:07:48;;;;;;;6.05;3.40;;;;;;;16.61;100.00;94896.38;5053402;28;20040;-55
2021/08/27 07:10:14;;;;;;;5.88;3.53;;;;;;;16.79;100.00;94918.94;5053582;28;20029;-57
2021/08/27 07:12:42;;;;;;;6.18;3.40;;;;;;;16.91;100.00;94918.38;5053532;28;20027;-55
2021/08/27 07:15:10;;;;;;;7.03;3.75;;;;;;;16.95;100.00;94932.91;5052072;28;20464;-51
2021/08/27 07:17:36;;;;;;;8.38;3.90;;;;;;;17.03;100.00;94951.88;5051899;28;20024;-54
2021/08/27 07:20:02;;;;;;;7.20;3.80;;;;;;;17.20;100.00;94956.63;5053097;28;20028;-51
2021/08/27 07:22:28;;;;;;;6.18;3.20;;;;;;;17.36;100.00;94986.78;5066348;28;20032;-54
2021/08/27 07:24:53;;;;;;;5.03;2.70;;;;;;;17.49;100.00;95034.66;5045451;28;20025;-53
2021/08/27 07:27:26;;;;;;;6.55;3.28;;;;;;;17.79;100.00;95035.00;5051899;28;20031;-49
2021/08/27 07:29:52;;;;;;;6.70;2.85;;;;;;;18.02;100.00;95082.66;5040556;28;20028;-51
2021/08/27 07:32:17;;;;;;;6.22;2.90;;;;;;;18.18;100.00;95097.38;5053633;28;20083;-54
2021/08/27 07:34:52;;;;;;;5.15;2.90;;;;;;;18.10;100.00;95117.09;5053887;28;20028;-54
2021/08/27 07:37:20;;;;;;;5.75;2.83;;;;;;;18.29;100.00;95118.78;5054168;28;20025;-53
2021/08/27 07:39:53;;;;;;;5.38;3.00;;;;;;;18.50;100.00;95133.41;5054185;28;20021;-53
2021/08/27 07:42:19;;;;;;;5.60;3.55;;;;;;;18.74;100.00;95136.53;5053973;28;20060;-52
2021/08/27 07:44:46;;;;;;;9.52;3.15;;;;;;;19.05;100.00;95135.66;5052894;28;20399;-55
2021/08/27 07:47:24;;;;;;;6.53;3.45;;;;;;;19.41;100.00;95163.31;5051039;28;20391;-56
2021/08/27 07:49:50;;;;;;;7.68;3.38;;;;;;;19.66;100.00;95221.56;5018620;28;20110;-54
2021/08/27 07:52:17;;;;;;;8.13;3.40;;;;;;;19.75;100.00;95275.91;5063219;28;20102;-52
2021/08/27 07:54:43;;;;;;;4.78;2.60;;;;;;;19.98;100.00;95312.72;5052943;28;20378;-58
2021/08/27 07:57:08;;;;;;;7.75;3.15;;;;;;;19.91;100.00;95322.47;5052120;28;20048;-58
2021/08/27 07:59:34;;;;;;;4.93;2.53;;;;;;;19.84;100.00;95319.41;5052481;28;20028;-57
2021/08/27 08:02:08;;;;;;;6.30;2.70;;;;;;;20.10;100.00;95327.59;5068681;28;20028;-58
2021/08/27 08:04:36;;;;;;;7.03;2.60;;;;;;;20.28;100.00;95348.22;5051281;28;20059;-57
2021/08/27 08:07:02;;;;;;;6.70;2.50;;;;;;;20.36;100.00;95357.53;5052389;28;20025;-57
2021/08/27 08:09:36;;;;;;;4.50;2.50;;;;;;;19.91;100.00;95355.88;5052438;28;20094;-57
2021/08/27 08:12:02;;;;;;;8.82;3.10;;;;;;;19.62;100.00;95353.72;5051071;28;20021;-54
2021/08/27 08:14:30;;;;;;;7.25;2.92;;;;;;;19.35;100.00;95334.91;5051218;28;20056;-58
2021/08/27 08:16:57;;;;;;;5.47;2.83;;;;;;;19.41;100.00;95317.34;5050851;28;20021;-55
2021/08/27 08:19:26;;;;;;;5.82;3.03;;;;;;;19.49;100.00;95319.31;5053009;28;20033;-57
2021/08/27 08:21:51;;;;;;;5.72;2.60;;;;;;;19.69;100.00;95321.47;5051908;28;20109;-58
2021/08/27 08:24:20;;;;;;;7.45;2.25;;;;;;;20.09;100.00;95320.56;5053439;28;20045;-54
2021/08/27 08:26:45;;;;;;;6.65;2.40;;;;;;;20.06;100.00;95337.50;5051849;28;20017;-54
2021/08/27 08:29:10;;;;;;;4.18;1.98;;;;;;;20.29;100.00;95336.22;5052464;28;20394;-55
2021/08/27 08:31:36;;;;;;;6.15;2.70;;;;;;;20.58;100.00;95353.88;5051886;28;20380;-53
2021/08/27 08:34:02;;;;;;;4.60;2.45;;;;;;;20.91;100.00;95373.19;5051930;28;20021;-56
2021/08/27 08:36:27;;;;;;;6.93;2.60;;;;;;;20.99;98.62;95403.16;5049257;28;20115;-58
2021/08/27 08:38:57;;;;;;;4.97;2.58;;;;;;;20.95;99.12;95394.03;5030373;28;20032;-52
2021/08/27 08:41:23;;;;;;;4.47;2.25;;;;;;;20.93;99.96;95393.53;5048433;28;20025;-56
2021/08/27 08:43:50;;;;;;;5.80;2.63;;;;;;;20.64;100.00;95382.53;5049223;28;20391;-56
2021/08/27 08:46:16;;;;;;;5.95;2.85;;;;;;;20.28;100.00;95384.38;5049260;28;20111;-55
2021/08/27 08:48:46;;;;;;;5.30;3.00;;;;;;;20.49;100.00;95362.81;5048901;28;20159;-55
2021/08/27 08:51:14;;;;;;;5.20;2.38;;;;;;;20.73;100.00;95365.06;5049216;28;20029;-58
2021/08/27 08:53:45;;;;;;;5.18;2.00;;;;;;;20.96;100.00;95352.06;5050186;28;20052;-51
2021/08/27 08:56:11;;;;;;;7.22;2.85;;;;;;;21.35;100.00;95361.09;5037773;28;20468;-58
2021/08/27 08:58:39;;;;;;;5.07;2.80;;;;;;;21.73;100.00;95387.56;5036373;28;20095;-54
2021/08/27 09:01:05;;;;;;;4.20;2.85;;;;;;;21.83;94.16;95412.53;5050676;28;20039;-56
2021/08/27 09:03:33;;;;;;;5.25;2.45;;;;;;;21.95;92.30;95420.00;5035833;28;20033;-56
2021/08/27 09:05:58;;;;;;;3.15;2.30;;;;;;;21.93;90.15;95425.78;5048810;28;20454;-57
2021/08/27 09:08:37;;;;;;;6.07;3.10;;;;;;;22.20;91.18;95437.38;5036150;28;20029;-55
2021/08/27 09:11:13;;;;;;;4.47;2.95;;;;;;;22.45;89.41;95430.94;5048988;28;20024;-53
2021/08/27 09:13:39;;;;;;;4.55;2.83;;;;;;;21.88;88.01;95439.59;4966208;28;20593;-52
2021/08/27 09:16:07;;;;;;;4.22;2.67;;;;;;;21.55;86.84;95442.13;5046882;28;20029;-53
2021/08/27 09:18:49;;;;;;;3.95;2.67;;;;;;;21.56;87.39;95437.47;5047822;28;20052;-58
2021/08/27 09:21:45;;;;;;;3.42;2.38;;;;;;;21.24;91.01;95427.91;5049090;28;20373;-56
2021/08/27 09:24:27;;;;;;;7.05;3.10;;;;;;;20.95;96.93;95406.81;5049943;28;20114;-57
2021/08/27 09:27:01;;;;;;;3.22;2.03;;;;;;;20.61;100.00;95385.88;5046614;28;20029;-59
2021/08/27 09:29:45;;;;;;;5.32;2.65;;;;;;;20.13;100.00;95387.59;5033897;28;20052;-57
2021/08/27 09:32:18;;;;;;;4.35;2.38;;;;;;;19.91;100.00;95396.66;5049227;28;20037;-56
2021/08/27 09:35:00;;;;;;;6.20;2.30;;;;;;;19.75;100.00;95375.66;5051086;28;20113;-58
2021/08/27 09:37:36;;;;;;;6.82;3.03;;;;;;;19.63;100.00;95381.69;5039628;28;20116;-58
2021/08/27 09:40:05;;;;;;;4.78;2.60;;;;;;;19.54;100.00;95384.38;5050848;28;20029;-58
2021/08/27 09:42:42;;;;;;;5.25;2.55;;;;;;;20.06;100.00;95381.00;5033739;28;20021;-58
2021/08/27 09:45:08;;;;;;;7.28;2.60;;;;;;;19.95;99.68;95404.97;5057595;28;20020;-58
2021/08/27 09:47:34;;;;;;;8.10;2.58;;;;;;;19.94;100.00;95400.66;5057438;28;20025;-58
2021/08/27 09:50:19;;;;;;;4.88;2.25;;;;;;;20.28;100.00;95392.56;5050956;28;20435;-58
2021/08/27 09:53:14;;;;;;;5.95;2.85;;;;;;;20.27;99.51;95396.41;5049500;28;20025;-58
2021/08/27 09:56:05;;;;;;;5.13;2.30;;;;;;;20.56;100.00;95386.84;5028771;28;20158;-56
2021/08/27 09:58:50;;;;;;;6.20;2.40;;;;;;;20.50;100.00;95393.56;5043580;28;20520;-56
2021/08/27 10:01:15;;;;;;;4.53;2.28;;;;;;;20.54;100.00;95381.72;5051021;28;20484;-55
2021/08/27 10:03:41;;;;;;;3.67;2.40;;;;;;;20.28;100.00;95376.22;5050572;28;20021;-58
2021/08/27 10:06:07;;;;;;;5.68;2.50;;;;;;;19.97;100.00;95387.25;5049327;28;20052;-57
2021/08/27 10:08:33;;;;;;;5.40;2.70;;;;;;;19.80;100.00;95387.19;5050911;28;20538;-59
2021/08/27 10:11:19;;;;;;;4.38;2.47;;;;;;;19.61;100.00;95382.00;5050527;28;20021;-56
2021/08/27 10:13:45;;;;;;;8.05;2.85;;;;;;;19.34;100.00;95371.34;5050602;28;20094;-57
2021/08/27 10:16:12;;;;;;;3.42;2.30;;;;;;;19.15;100.00;95360.72;5050723;28;20056;-56
2021/08/27 10:18:38;;;;;;;3.53;2.38;;;;;;;19.00;100.00;95337.50;5050435;28;20028;-58
2021/08/27 10:21:09;;;;;;;5.80;2.40;;;;;;;18.92;100.00;95327.38;5050668;28;20020;-56
2021/08/27 10:23:34;;;;;;;6.38;2.70;;;;;;;18.81;100.00;95335.00;5033257;28;20538;-58
2021/08/27 10:26:21;;;;;;;8.02;2.20;;;;;;;18.77;100.00;95327.75;5049331;28;20036;-58
2021/08/27 10:28:52;;;;;;;4.80;2.55;;;;;;;18.81;100.00;95339.63;5050452;28;20025;-56
2021/08/27 10:31:18;;;;;;;6.70;2.33;;;;;;;18.88;100.00;95337.25;5046090;28;20480;-58
2021/08/27 10:34:00;;;;;;;5.97;2.67;;;;;;;18.91;100.00;95347.50;5053892;28;20025;-55
2021/08/27 10:36:31;;;;;;;3.70;2.23;;;;;;;18.92;100.00;95359.16;5053853;28;20111;-54
2021/08/27 10:39:00;;;;;;;4.68;2.50;;;;;;;18.88;100.00;95350.81;5063411;28;20024;-54
2021/08/27 10:41:40;;;;;;;4.07;2.30;;;;;;;19.00;100.00;95351.06;5039327;28;20086;-56
2021/08/27 10:44:12;;;;;;;3.90;2.22;;;;;;;19.40;100.00;95332.84;5054001;28;20104;-57
2021/08/27 10:46:43;;;;;;;6.22;2.30;;;;;;;19.94;100.00;95357.97;5052397;28;20140;-55
2021/08/27 10:49:14;;;;;;;7.10;2.70;;;;;;;20.59;100.00;95369.06;5053689;28;20036;-57
2021/08/27 10:51:41;;;;;;;7.38;2.83;;;;;;;21.02;96.84;95397.03;5053815;28;20502;-54
2021/08/27 10:54:11;;;;;;;11.50;2.95;;;;;;;21.65;95.78;95397.38;5053564;28;20068;-53
2021/08/27 10:56:50;;;;;;;5.72;2.40;;;;;;;22.00;95.88;95389.81;5053606;28;20040;-55
2021/08/27 10:59:23;;;;;;;3.72;2.38;;;;;;;22.48;91.70;95402.22;5054160;28;20091;-53
2021/08/27 11:02:00;;;;;;;7.75;2.60;;;;;;;22.95;86.03;95418.41;5053654;28;20079;-57
2021/08/27 11:04:26;;;;;;;5.82;2.53;;;;;;;23.32;86.34;95417.38;5052233;28;20033;-53
2021/08/27 11:07:03;;;;;;;5.55;2.97;;;;;;;23.71;83.86;95421.47;5053652;28;20498;-51
2021/08/27 11:09:30;;;;;;;8.13;2.70;;;;;;;23.77;81.56;95423.97;5053681;28;20033;-56
2021/08/27 11:12:04;;;;;;;6.57;2.90;;;;;;;23.90;75.45;95442.81;5051926;28;20025;-53
2021/08/27 11:14:30;;;;;;;3.53;2.08;;;;;;;23.92;72.84;95439.72;5053416;28;20025;-50
2021/08/27 11:17:03;;;;;;;4.53;1.77;;;;;;;23.70;70.10;95435.50;5052002;28;20116;-57
2021/08/27 11:19:34;;;;;;;5.45;2.42;;;;;;;23.67;72.23;95433.44;5052027;28;20075;-57
2021/08/27 11:22:11;;;;;;;3.53;1.98;;;;;;;23.75;74.24;95429.78;5053155;28;20452;-55
2021/08/27 11:24:42;;;;;;;3.20;1.80;;;;;;;24.11;70.20;95444.66;5053272;28;20108;-50
2021/08/27 11:27:15;;;;;;;4.20;1.98;;;;;;;24.30;63.69;95455.78;5052127;28;20044;-59
2021/08/27 11:29:45;;;;;;;3.13;2.15;;;;;;;24.66;63.35;95446.00;5053294;28;20025;-54
2021/08/27 11:32:16;;;;;;;3.40;2.05;;;;;;;24.80;62.96;95449.94;5038805;28;20037;-54
2021/08/27 11:34:53;;;;;;;3.05;1.65;;;;;;;24.21;57.38;95460.63;5051941;28;20037;-56
2021/08/27 11:37:21;;;;;;;3.65;1.67;;;;;;;24.23;61.63;95453.66;5052956;28;20029;-54
2021/08/27 11:39:50;;;;;;;2.97;1.88;;;;;;;24.53;61.09;95459.72;5051802;28;20036;-50
2021/08/27 11:42:17;;;;;;;3.58;2.00;;;;;;;24.69;58.69;95453.50;5053043;28;20021;-56